createdAt,value
2019-05-15T00:00:15.374Z,13.10
2019-05-15T00:02:42.950Z,13.10
2019-05-15T00:05:11.271Z,12.20
2019-05-15T00:07:39.424Z,12.20
2019-05-15T00:10:08.548Z,11.90
2019-05-15T00:12:34.045Z,12.10
2019-05-15T00:15:02.412Z,12.50
2019-05-15T00:17:30.839Z,12.70
2019-05-15T00:19:58.377Z,12.70
2019-05-15T00:22:29.000Z,12.50
2019-05-15T00:24:54.765Z,12.50
2019-05-15T00:27:22.309Z,12.30
2019-05-15T00:29:49.869Z,12.30
2019-05-15T00:32:18.608Z,12.40
2019-05-15T00:34:45.018Z,12.70
2019-05-15T00:37:12.685Z,12.80
2019-05-15T00:39:40.223Z,12.80
2019-05-15T00:42:08.491Z,12.70
2019-05-15T00:44:38.704Z,12.60
2019-05-15T00:47:05.344Z,12.50
2019-05-15T00:49:32.824Z,12.50
2019-05-15T00:52:01.064Z,12.70
2019-05-15T00:54:28.637Z,12.70
2019-05-15T00:56:57.963Z,12.90
2019-05-15T00:59:26.901Z,12.70
2019-05-15T01:01:51.340Z,12.60
2019-05-15T01:04:18.943Z,12.50
2019-05-15T01:06:48.749Z,12.10
2019-05-15T01:09:18.523Z,11.90
2019-05-15T01:11:43.772Z,11.90
2019-05-15T01:14:12.338Z,11.70
2019-05-15T01:16:39.616Z,11.70
2019-05-15T01:19:09.229Z,11.40
2019-05-15T01:21:38.394Z,11.40
2019-05-15T01:24:03.924Z,11.40
2019-05-15T01:29:00.277Z,11.40
2019-05-15T01:31:28.538Z,11.30
2019-05-15T01:33:55.398Z,11.30
2019-05-15T01:36:22.963Z,11.40
2019-05-15T01:38:51.252Z,11.20
2019-05-15T01:41:19.053Z,11.10
2019-05-15T01:43:49.003Z,11.40
2019-05-15T01:46:16.197Z,11.20
2019-05-15T01:48:43.751Z,11.20
2019-05-15T01:51:11.254Z,11.30
2019-05-15T01:53:38.905Z,11.20
2019-05-15T01:56:08.463Z,11.30
2019-05-15T01:58:34.823Z,11.30
2019-05-15T02:01:02.402Z,11.10
2019-05-15T02:03:29.991Z,11.00
2019-05-15T02:05:58.758Z,11.20
2019-05-15T02:08:28.255Z,11.30
2019-05-15T02:10:55.309Z,11.30
2019-05-15T02:13:22.873Z,11.30
2019-05-15T02:15:50.364Z,11.10
2019-05-15T02:18:19.266Z,11.00
2019-05-15T02:20:46.272Z,11.00
2019-05-15T02:23:13.881Z,11.00
2019-05-15T02:25:41.522Z,10.90
2019-05-15T02:28:09.577Z,11.10
2019-05-15T02:30:40.511Z,10.90
2019-05-15T02:33:05.006Z,10.70
2019-05-15T02:35:33.629Z,10.30
2019-05-15T02:38:01.907Z,10.20
2019-05-15T02:40:30.279Z,10.60
2019-05-15T02:42:59.180Z,10.60
2019-05-15T02:45:25.295Z,10.90
2019-05-15T02:47:52.792Z,10.60
2019-05-15T02:50:21.037Z,10.30
2019-05-15T02:52:49.733Z,10.30
2019-05-15T02:55:16.163Z,10.10
2019-05-15T02:57:43.988Z,10.30
2019-05-15T03:00:30.247Z,10.30
2019-05-15T03:02:41.174Z,10.10
2019-05-15T03:05:09.279Z,10.10
2019-05-15T03:07:35.030Z,10.20
2019-05-15T03:10:02.534Z,10.30
2019-05-15T03:12:30.032Z,10.10
2019-05-15T03:14:59.830Z,10.20
2019-05-15T03:17:25.045Z,10.00
2019-05-15T03:19:52.645Z,10.00
2019-05-15T03:22:20.907Z,10.10
2019-05-15T03:24:50.321Z,10.10
2019-05-15T03:27:19.414Z,9.80
2019-05-15T03:29:45.134Z,9.90
2019-05-15T03:32:25.382Z,9.90
2019-05-15T03:34:47.312Z,9.90
2019-05-15T03:37:12.021Z,10.00
2019-05-15T03:39:39.301Z,10.00
2019-05-15T03:42:09.447Z,10.00
2019-05-15T03:44:34.942Z,9.90
2019-05-15T03:47:02.409Z,9.90
2019-05-15T03:49:30.789Z,9.80
2019-05-15T03:51:58.938Z,9.80
2019-05-15T03:54:29.151Z,9.90
2019-05-15T03:56:54.208Z,9.90
2019-05-15T03:59:22.551Z,9.90
2019-05-15T04:01:50.172Z,9.90
2019-05-15T04:04:18.925Z,10.00
2019-05-15T04:06:45.294Z,10.00
2019-05-15T04:09:13.741Z,9.80
2019-05-15T04:11:41.994Z,10.00
2019-05-15T04:14:10.327Z,10.00
2019-05-15T04:16:39.018Z,10.00
2019-05-15T04:19:05.641Z,9.90
2019-05-15T04:21:33.901Z,9.80
2019-05-15T04:24:01.492Z,9.80
2019-05-15T04:26:29.091Z,9.80
2019-05-15T04:28:59.871Z,9.90
2019-05-15T04:31:24.069Z,9.70
2019-05-15T04:33:51.732Z,9.80
2019-05-15T04:36:20.169Z,9.60
2019-05-15T04:38:49.826Z,9.80
2019-05-15T04:41:15.131Z,9.90
2019-05-15T04:43:44.990Z,10.10
2019-05-15T04:46:10.990Z,9.60
2019-05-15T04:48:39.964Z,9.70
2019-05-15T04:51:09.702Z,9.70
2019-05-15T04:53:39.120Z,9.70
2019-05-15T04:56:03.704Z,9.70
2019-05-15T04:58:33.375Z,9.60
2019-05-15T05:01:01.807Z,9.60
2019-05-15T05:03:29.619Z,9.80
2019-05-15T05:05:59.121Z,10.00
2019-05-15T05:08:28.692Z,10.00
2019-05-15T05:10:53.628Z,10.00
2019-05-15T05:13:21.119Z,10.00
2019-05-15T05:15:50.007Z,9.90
2019-05-15T05:18:18.838Z,10.00
2019-05-15T05:20:44.695Z,10.10
2019-05-15T05:23:13.047Z,10.00
2019-05-15T05:25:40.715Z,10.00
2019-05-15T05:28:09.811Z,10.10
2019-05-15T05:30:38.594Z,10.10
2019-05-15T05:33:05.638Z,10.20
2019-05-15T05:35:33.218Z,10.20
2019-05-15T05:38:00.697Z,10.10
2019-05-15T05:40:29.299Z,10.30
2019-05-15T05:42:55.684Z,10.30
2019-05-15T05:45:23.293Z,10.50
2019-05-15T05:47:50.860Z,10.30
2019-05-15T05:50:24.765Z,10.50
2019-05-15T05:52:52.308Z,10.40
2019-05-15T05:55:19.829Z,10.50
2019-05-15T05:57:48.701Z,10.50
2019-05-15T06:00:15.221Z,10.50
2019-05-15T06:02:47.778Z,10.70
2019-05-15T06:05:11.160Z,10.70
2019-05-15T06:07:38.983Z,10.80
2019-05-15T06:10:08.622Z,10.70
2019-05-15T06:12:33.684Z,10.80
2019-05-15T06:15:02.179Z,11.10
2019-05-15T06:17:29.881Z,11.10
2019-05-15T06:19:58.626Z,11.30
2019-05-15T06:22:27.688Z,11.40
2019-05-15T06:24:54.227Z,11.60
2019-05-15T06:27:21.787Z,11.50
2019-05-15T06:29:49.264Z,11.60
2019-05-15T06:32:19.339Z,11.80
2019-05-15T06:34:45.324Z,11.90
2019-05-15T06:37:12.799Z,12.00
2019-05-15T06:39:41.145Z,12.20
2019-05-15T06:42:08.872Z,12.20
2019-05-15T06:44:36.177Z,12.30
2019-05-15T06:47:04.644Z,12.50
2019-05-15T06:49:32.131Z,12.50
2019-05-15T06:51:59.620Z,12.60
2019-05-15T06:54:28.394Z,12.80
2019-05-15T06:56:58.184Z,12.80
2019-05-15T06:59:23.995Z,13.10
2019-05-15T07:01:51.896Z,13.10
2019-05-15T07:04:20.156Z,13.10
2019-05-15T07:06:48.930Z,13.10
2019-05-15T07:09:17.820Z,13.20
2019-05-15T07:11:43.439Z,13.20
2019-05-15T07:14:10.940Z,13.20
2019-05-15T07:16:39.222Z,13.60
2019-05-15T07:19:08.321Z,13.80
2019-05-15T07:21:34.968Z,13.80
2019-05-15T07:24:02.460Z,14.00
2019-05-15T07:26:30.841Z,14.00
2019-05-15T07:28:59.530Z,14.00
2019-05-15T07:31:28.808Z,14.00
2019-05-15T07:33:54.620Z,14.00
2019-05-15T07:36:22.185Z,14.00
2019-05-15T07:38:49.749Z,14.10
2019-05-15T07:41:18.480Z,14.20
2019-05-15T07:43:45.595Z,14.50
2019-05-15T07:46:13.167Z,14.50
2019-05-15T07:48:43.881Z,14.50
2019-05-15T07:51:11.447Z,14.60
2019-05-15T07:53:38.402Z,14.60
2019-05-15T07:56:06.080Z,14.70
2019-05-15T07:58:33.651Z,14.70
2019-05-15T08:01:01.310Z,14.80
2019-05-15T08:03:29.347Z,15.00
2019-05-15T08:06:02.142Z,15.10
2019-05-15T08:08:24.210Z,15.20
2019-05-15T08:10:51.774Z,15.10
2019-05-15T08:13:19.671Z,15.10
2019-05-15T08:15:49.061Z,15.30
2019-05-15T08:18:18.036Z,15.30
2019-05-15T08:20:45.304Z,15.40
2019-05-15T08:23:13.026Z,15.50
2019-05-15T08:25:40.555Z,15.50
2019-05-15T08:28:08.798Z,15.50
2019-05-15T08:30:35.587Z,15.60
2019-05-15T08:33:04.437Z,15.70
2019-05-15T08:35:32.058Z,15.70
2019-05-15T08:38:00.422Z,15.90
2019-05-15T08:40:28.482Z,15.90
2019-05-15T08:43:01.234Z,15.70
2019-05-15T08:45:23.808Z,15.70
2019-05-15T08:47:51.334Z,15.90
2019-05-15T08:50:18.816Z,15.80
2019-05-15T08:52:48.516Z,15.60
2019-05-15T08:55:14.668Z,15.80
2019-05-15T08:57:42.251Z,15.70
2019-05-15T09:00:10.051Z,15.90
2019-05-15T09:02:38.254Z,16.00
2019-05-15T09:05:08.286Z,16.20
2019-05-15T09:07:33.163Z,16.20
2019-05-15T09:10:01.107Z,16.20
2019-05-15T09:12:29.492Z,16.20
2019-05-15T09:14:58.102Z,16.30
2019-05-15T09:17:23.790Z,16.30
2019-05-15T09:19:51.355Z,16.40
2019-05-15T09:22:18.961Z,16.60
2019-05-15T09:24:48.869Z,16.50
2019-05-15T09:27:18.409Z,16.40
2019-05-15T09:29:44.887Z,16.10
2019-05-15T09:32:12.676Z,16.10
2019-05-15T09:34:50.505Z,16.10
2019-05-15T09:37:08.563Z,16.20
2019-05-15T09:39:34.969Z,16.30
2019-05-15T09:42:04.239Z,16.40
2019-05-15T09:44:31.799Z,16.40
2019-05-15T09:46:59.427Z,16.90
2019-05-15T09:49:28.596Z,16.70
2019-05-15T09:51:54.823Z,16.80
2019-05-15T09:54:25.445Z,16.70
2019-05-15T09:56:50.753Z,16.80
2019-05-15T09:59:18.743Z,16.80
2019-05-15T10:01:48.109Z,16.70
2019-05-15T10:04:14.165Z,16.80
2019-05-15T10:06:41.841Z,16.80
2019-05-15T10:09:10.203Z,16.90
2019-05-15T10:11:38.317Z,16.90
2019-05-15T10:14:06.039Z,16.70
2019-05-15T10:16:33.750Z,16.70
2019-05-15T10:19:01.999Z,16.40
2019-05-15T10:21:32.627Z,16.40
2019-05-15T10:23:59.057Z,16.70
2019-05-15T10:26:25.629Z,16.70
2019-05-15T10:28:53.106Z,16.60
2019-05-15T10:31:21.464Z,17.00
2019-05-15T10:33:49.236Z,17.00
2019-05-15T10:36:18.863Z,17.00
2019-05-15T10:38:45.608Z,17.10
2019-05-15T10:41:15.223Z,17.10
2019-05-15T10:43:46.347Z,16.90
2019-05-15T10:46:13.024Z,17.10
2019-05-15T10:48:38.391Z,17.00
2019-05-15T10:51:07.140Z,17.50
2019-05-15T10:53:32.730Z,17.40
2019-05-15T10:56:02.749Z,17.20
2019-05-15T10:58:29.395Z,17.20
2019-05-15T11:01:01.801Z,17.20
2019-05-15T11:03:24.823Z,17.40
2019-05-15T11:05:52.371Z,17.40
2019-05-15T11:08:19.866Z,17.50
2019-05-15T11:10:49.456Z,17.50
2019-05-15T11:13:18.603Z,17.40
2019-05-15T11:15:44.871Z,17.30
2019-05-15T11:18:12.950Z,17.30
2019-05-15T11:20:41.305Z,17.20
2019-05-15T11:23:08.789Z,17.50
2019-05-15T11:25:37.768Z,17.40
2019-05-15T11:28:04.050Z,17.10
2019-05-15T11:30:31.723Z,17.20
2019-05-15T11:32:59.505Z,17.20
2019-05-15T11:35:28.506Z,17.50
2019-05-15T11:37:57.130Z,17.60
2019-05-15T11:40:23.692Z,17.50
2019-05-15T11:42:51.270Z,17.50
2019-05-15T11:45:18.853Z,17.60
2019-05-15T11:47:48.301Z,17.70
2019-05-15T11:50:13.843Z,17.90
2019-05-15T11:52:41.360Z,17.90
2019-05-15T11:55:09.610Z,17.90
2019-05-15T11:57:46.100Z,17.90
2019-05-15T12:00:14.922Z,17.80
2019-05-15T12:02:34.674Z,17.80
2019-05-15T12:05:03.037Z,17.90
2019-05-15T12:07:30.556Z,17.80
2019-05-15T12:09:58.181Z,17.90
2019-05-15T12:12:31.244Z,18.00
2019-05-15T12:14:54.900Z,18.00
2019-05-15T12:17:22.385Z,18.00
2019-05-15T12:20:04.699Z,18.20
2019-05-15T12:22:17.429Z,18.40
2019-05-15T12:24:49.533Z,18.00
2019-05-15T12:27:18.225Z,18.00
2019-05-15T12:29:41.875Z,18.00
2019-05-15T12:34:38.844Z,17.90
2019-05-15T12:37:04.673Z,17.90
2019-05-15T12:39:32.329Z,18.00
2019-05-15T13:01:43.338Z,18.50
2019-05-15T13:04:10.934Z,18.50
2019-05-15T13:06:47.856Z,18.80
2019-05-15T13:09:08.686Z,18.60
2019-05-15T13:11:35.294Z,18.60
2019-05-15T13:14:04.887Z,19.00
2019-05-15T13:16:32.431Z,18.90
2019-05-15T13:19:00.575Z,18.40
2019-05-15T13:21:29.657Z,18.90
2019-05-15T13:23:58.526Z,19.60
2019-05-15T13:26:27.075Z,19.50
2019-05-15T13:28:52.744Z,19.40
2019-05-15T13:31:21.100Z,19.00
2019-05-15T13:33:48.575Z,19.00
2019-05-15T13:36:19.690Z,18.70
2019-05-15T13:38:44.500Z,18.70
2019-05-15T13:41:12.063Z,18.50
2019-05-15T13:43:39.571Z,18.40
2019-05-15T13:46:08.779Z,18.80
2019-05-15T13:48:35.269Z,19.60
2019-05-15T13:51:04.155Z,19.80
2019-05-15T13:53:32.959Z,19.30
2019-05-15T13:56:00.529Z,19.80
2019-05-15T13:58:28.399Z,19.50
2019-05-15T14:00:58.878Z,19.50
2019-05-15T14:03:24.962Z,19.10
2019-05-15T14:05:54.701Z,18.30
2019-05-15T14:08:22.947Z,19.00
2019-05-15T14:10:50.441Z,19.00
2019-05-15T14:13:18.998Z,19.60
2019-05-15T14:15:48.624Z,19.60
2019-05-15T14:18:15.565Z,20.20
2019-05-15T14:20:43.642Z,20.20
2019-05-15T14:23:11.201Z,20.20
2019-05-15T14:25:39.034Z,19.70
2019-05-15T14:28:08.763Z,19.60
2019-05-15T14:30:35.622Z,19.70
2019-05-15T14:33:04.535Z,20.10
2019-05-15T14:35:32.047Z,20.10
2019-05-15T14:38:05.977Z,20.50
2019-05-15T14:40:29.125Z,20.50
2019-05-15T14:42:59.307Z,20.10
2019-05-15T14:45:25.117Z,18.90
2019-05-15T14:47:52.677Z,19.00
2019-05-15T14:50:20.298Z,19.60
2019-05-15T14:52:48.099Z,19.80
2019-05-15T14:55:15.317Z,19.60
2019-05-15T14:57:42.797Z,19.90
2019-05-15T15:00:10.395Z,20.10
2019-05-15T15:02:39.209Z,19.90
2019-05-15T15:05:08.689Z,19.80
2019-05-15T15:07:33.671Z,20.40
2019-05-15T15:10:01.992Z,20.10
2019-05-15T15:12:29.526Z,19.80
2019-05-15T15:14:57.014Z,19.80
2019-05-15T15:17:24.532Z,19.70
2019-05-15T15:19:53.041Z,20.20
2019-05-15T15:22:20.043Z,20.60
2019-05-15T15:24:48.393Z,19.60
2019-05-15T15:27:17.196Z,20.20
2019-05-15T15:37:11.647Z,20.00
2019-05-15T15:39:39.234Z,20.20
2019-05-15T15:42:08.603Z,20.20
2019-05-15T16:01:59.917Z,20.40
2019-05-15T16:04:28.195Z,20.30
2019-05-15T16:06:55.305Z,20.30
2019-05-15T17:33:48.780Z,19.90
2019-05-15T17:36:14.186Z,19.70
2019-05-15T17:38:41.684Z,19.70
2019-05-15T17:41:09.307Z,19.10
2019-05-15T17:43:37.932Z,19.10
2019-05-15T17:46:04.443Z,19.10
2019-05-15T17:48:31.985Z,18.80
2019-05-15T17:50:59.593Z,18.90
2019-05-15T17:53:28.848Z,18.40
2019-05-15T17:55:58.453Z,18.00
2019-05-15T17:58:24.633Z,18.60
2019-05-15T18:00:52.130Z,18.60
2019-05-15T18:03:19.609Z,19.40
2019-05-15T18:05:48.393Z,19.20
2019-05-15T18:08:15.503Z,18.90
2019-05-15T18:10:43.049Z,18.90
2019-05-15T18:13:11.652Z,18.10
2019-05-15T18:15:41.689Z,18.40
2019-05-15T18:18:10.042Z,18.50
2019-05-15T18:20:38.443Z,18.50
2019-05-15T18:23:05.038Z,18.10
2019-05-15T18:25:32.532Z,17.90
2019-05-15T18:28:02.255Z,17.10
2019-05-15T18:30:29.730Z,17.10
2019-05-15T18:32:58.848Z,17.30
2019-05-15T18:35:26.293Z,17.00
2019-05-15T18:37:55.377Z,17.70
2019-05-15T18:40:22.934Z,17.70
2019-05-15T18:42:50.494Z,18.90
2019-05-15T18:45:18.372Z,18.10
2019-05-15T18:47:47.694Z,17.50
2019-05-15T18:50:14.465Z,19.00
2019-05-15T18:52:42.055Z,19.00
2019-05-15T18:55:09.537Z,18.70
2019-05-15T18:57:38.670Z,18.70
2019-05-15T19:00:05.693Z,18.00
2019-05-15T19:02:33.174Z,17.40
2019-05-15T19:05:01.428Z,18.80
2019-05-15T19:07:29.004Z,18.80
2019-05-15T19:09:58.127Z,17.90
2019-05-15T19:12:28.265Z,17.80
2019-05-15T19:14:54.774Z,18.40
2019-05-15T19:17:22.332Z,18.40
2019-05-15T19:19:50.194Z,17.50
2019-05-15T19:22:19.252Z,18.00
2019-05-15T19:24:45.391Z,18.20
2019-05-15T19:27:13.202Z,18.20
2019-05-15T19:29:40.684Z,17.90
2019-05-15T19:32:11.149Z,17.80
2019-05-15T19:34:38.852Z,17.60
2019-05-15T19:37:07.029Z,17.00
2019-05-15T19:39:34.743Z,17.00
2019-05-15T19:42:04.137Z,17.20
2019-05-15T19:44:31.640Z,17.20
2019-05-15T19:46:59.140Z,17.70
2019-05-15T19:49:26.741Z,16.70
2019-05-15T19:51:55.011Z,17.00
2019-05-15T19:54:23.571Z,16.00
2019-05-15T19:56:51.738Z,16.00
2019-05-15T19:59:22.514Z,16.70
2019-05-15T20:01:48.589Z,17.40
2019-05-15T20:04:14.377Z,17.60
2019-05-15T20:06:42.652Z,17.20
2019-05-15T20:09:11.010Z,17.10
2019-05-15T20:11:39.266Z,17.10
2019-05-15T20:14:06.864Z,17.00
2019-05-15T20:16:34.520Z,17.30
2019-05-15T20:19:02.098Z,16.90
2019-05-15T20:21:30.691Z,16.60
2019-05-15T20:23:58.205Z,16.60
2019-05-15T20:26:25.826Z,16.70
2019-05-15T20:28:53.468Z,16.20
2019-05-15T20:31:20.955Z,16.60
2019-05-15T21:03:36.264Z,16.30
2019-05-15T23:44:56.309Z,13.80
2019-05-15T23:47:23.805Z,13.70
2019-05-15T23:49:51.367Z,13.60
2019-05-15T23:52:18.909Z,13.70
2019-05-15T23:54:46.423Z,13.40
